sensor_id;sensor_type;location;lat;lon;timestamp;pressure;altitude;pressure_sealevel;temperature;humidity
54592;BME280;40488;48.558;18.150;2022-07-23T00:01:42;99517.06;;;24.95;53.60
54592;BME280;40488;48.558;18.150;2022-07-23T00:04:11;99523.94;;;24.96;53.45
54592;BME280;40488;48.558;18.150;2022-07-23T00:06:41;99517.81;;;24.97;53.68
54592;BME280;40488;48.558;18.150;2022-07-23T00:09:10;99529.63;;;25.03;53.76
54592;BME280;40488;48.558;18.150;2022-07-23T00:11:38;99532.53;;;24.98;53.43
54592;BME280;40488;48.558;18.150;2022-07-23T00:14:07;99525.81;;;24.94;53.59
54592;BME280;40488;48.558;18.150;2022-07-23T00:16:35;99518.47;;;24.87;53.42
54592;BME280;40488;48.558;18.150;2022-07-23T00:19:03;99530.09;;;24.81;53.58
54592;BME280;40488;48.558;18.150;2022-07-23T00:21:32;99526.56;;;24.82;53.83
54592;BME280;40488;48.558;18.150;2022-07-23T00:24:02;99528.91;;;24.87;54.28
54592;BME280;40488;48.558;18.150;2022-07-23T00:26:30;99533.28;;;24.86;54.29
54592;BME280;40488;48.558;18.150;2022-07-23T00:28:59;99532.66;;;24.83;54.59
54592;BME280;40488;48.558;18.150;2022-07-23T00:31:29;99533.50;;;24.83;54.58
54592;BME280;40488;48.558;18.150;2022-07-23T00:33:57;99536.47;;;24.77;54.79
54592;BME280;40488;48.558;18.150;2022-07-23T00:36:28;99539.06;;;24.77;54.49
54592;BME280;40488;48.558;18.150;2022-07-23T00:38:58;99536.53;;;24.76;54.42
54592;BME280;40488;48.558;18.150;2022-07-23T00:41:28;99537.91;;;24.67;54.48
54592;BME280;40488;48.558;18.150;2022-07-23T00:46:44;99532.91;;;24.64;54.30
54592;BME280;40488;48.558;18.150;2022-07-23T00:49:12;99528.97;;;24.57;54.38
54592;BME280;40488;48.558;18.150;2022-07-23T00:51:41;99524.78;;;24.54;54.55
54592;BME280;40488;48.558;18.150;2022-07-23T00:54:10;99523.78;;;24.57;54.54
54592;BME280;40488;48.558;18.150;2022-07-23T00:56:40;99521.16;;;24.57;54.79
54592;BME280;40488;48.558;18.150;2022-07-23T00:59:09;99510.16;;;24.52;54.91
54592;BME280;40488;48.558;18.150;2022-07-23T01:01:37;99515.16;;;24.41;55.14
54592;BME280;40488;48.558;18.150;2022-07-23T01:04:06;99504.91;;;24.38;55.37
54592;BME280;40488;48.558;18.150;2022-07-23T01:06:36;99514.78;;;24.33;55.58
54592;BME280;40488;48.558;18.150;2022-07-23T01:09:05;99507.78;;;24.33;55.67
54592;BME280;40488;48.558;18.150;2022-07-23T01:11:34;99505.09;;;24.35;55.66
54592;BME280;40488;48.558;18.150;2022-07-23T01:14:11;99507.16;;;24.30;56.25
54592;BME280;40488;48.558;18.150;2022-07-23T01:16:40;99507.50;;;24.24;56.00
54592;BME280;40488;48.558;18.150;2022-07-23T01:19:09;99506.75;;;24.22;56.22
54592;BME280;40488;48.558;18.150;2022-07-23T01:21:39;99503.97;;;24.25;56.12
54592;BME280;40488;48.558;18.150;2022-07-23T01:24:11;99498.84;;;24.23;56.37
54592;BME280;40488;48.558;18.150;2022-07-23T01:26:48;99495.56;;;24.20;56.42
54592;BME280;40488;48.558;18.150;2022-07-23T01:29:17;99498.28;;;24.18;56.50
54592;BME280;40488;48.558;18.150;2022-07-23T01:31:47;99502.66;;;24.18;56.50
54592;BME280;40488;48.558;18.150;2022-07-23T01:34:16;99495.56;;;24.20;56.24
54592;BME280;40488;48.558;18.150;2022-07-23T01:36:44;99497.44;;;24.18;56.28
54592;BME280;40488;48.558;18.150;2022-07-23T01:39:17;99498.28;;;24.18;55.85
54592;BME280;40488;48.558;18.150;2022-07-23T01:41:46;99500.97;;;24.17;56.19
54592;BME280;40488;48.558;18.150;2022-07-23T01:44:19;99505.44;;;24.15;56.30
54592;BME280;40488;48.558;18.150;2022-07-23T01:46:47;99506.56;;;24.11;56.02
54592;BME280;40488;48.558;18.150;2022-07-23T01:49:18;99503.34;;;24.06;56.45
54592;BME280;40488;48.558;18.150;2022-07-23T01:51:58;99500.59;;;24.09;56.20
54592;BME280;40488;48.558;18.150;2022-07-23T01:54:37;99495.94;;;24.14;56.38
54592;BME280;40488;48.558;18.150;2022-07-23T01:57:08;99496.13;;;24.11;56.68
54592;BME280;40488;48.558;18.150;2022-07-23T01:59:37;99496.28;;;24.08;56.74
54592;BME280;40488;48.558;18.150;2022-07-23T02:02:08;99495.28;;;24.10;56.72
54592;BME280;40488;48.558;18.150;2022-07-23T02:04:37;99496.28;;;24.08;56.57
54592;BME280;40488;48.558;18.150;2022-07-23T02:07:05;99498.06;;;24.07;56.71
54592;BME280;40488;48.558;18.150;2022-07-23T02:09:34;99496.28;;;24.08;56.83
54592;BME280;40488;48.558;18.150;2022-07-23T02:12:04;99496.34;;;24.06;56.83
54592;BME280;40488;48.558;18.150;2022-07-23T02:14:33;99500.16;;;24.00;57.17
54592;BME280;40488;48.558;18.150;2022-07-23T02:17:05;99493.44;;;23.96;57.23
54592;BME280;40488;48.558;18.150;2022-07-23T02:19:34;99500.44;;;23.96;57.09
54592;BME280;40488;48.558;18.150;2022-07-23T02:22:03;99498.66;;;23.96;56.95
54592;BME280;40488;48.558;18.150;2022-07-23T02:24:31;99501.44;;;23.93;56.98
54592;BME280;40488;48.558;18.150;2022-07-23T02:27:01;99501.63;;;23.90;56.80
54592;BME280;40488;48.558;18.150;2022-07-23T02:29:30;99502.56;;;23.89;56.90
54592;BME280;40488;48.558;18.150;2022-07-23T02:31:59;99499.00;;;23.90;56.84
54592;BME280;40488;48.558;18.150;2022-07-23T02:34:28;99503.19;;;23.93;57.16
54592;BME280;40488;48.558;18.150;2022-07-23T02:36:56;99506.56;;;23.95;57.32
54592;BME280;40488;48.558;18.150;2022-07-23T02:39:27;99506.56;;;23.95;57.40
54592;BME280;40488;48.558;18.150;2022-07-23T02:41:56;99513.31;;;23.83;57.81
54592;BME280;40488;48.558;18.150;2022-07-23T02:44:26;99514.03;;;23.71;58.28
54592;BME280;40488;48.558;18.150;2022-07-23T02:46:57;99513.06;;;23.58;58.74
54592;BME280;40488;48.558;18.150;2022-07-23T02:49:26;99516.59;;;23.42;59.39
54592;BME280;40488;48.558;18.150;2022-07-23T02:51:55;99509.34;;;23.31;59.87
54592;BME280;40488;48.558;18.150;2022-07-23T02:54:24;99503.91;;;23.20;59.80
54592;BME280;40488;48.558;18.150;2022-07-23T02:56:52;99510.53;;;23.10;60.39
54592;BME280;40488;48.558;18.150;2022-07-23T02:59:21;99504.13;;;23.00;60.81
54592;BME280;40488;48.558;18.150;2022-07-23T03:01:49;99501.09;;;22.92;60.95
54592;BME280;40488;48.558;18.150;2022-07-23T03:04:20;99496.72;;;22.92;61.08
54592;BME280;40488;48.558;18.150;2022-07-23T03:06:49;99483.91;;;23.05;60.78
54592;BME280;40488;48.558;18.150;2022-07-23T03:09:18;99475.50;;;23.15;60.65
54592;BME280;40488;48.558;18.150;2022-07-23T03:11:46;99478.44;;;23.25;60.27
54592;BME280;40488;48.558;18.150;2022-07-23T03:14:15;99481.69;;;23.28;59.68
54592;BME280;40488;48.558;18.150;2022-07-23T03:16:43;99486.06;;;23.28;59.63
54592;BME280;40488;48.558;18.150;2022-07-23T03:19:12;99490.19;;;23.32;59.34
54592;BME280;40488;48.558;18.150;2022-07-23T03:21:42;99484.81;;;23.35;59.31
54592;BME280;40488;48.558;18.150;2022-07-23T03:24:12;99481.97;;;23.40;59.08
54592;BME280;40488;48.558;18.150;2022-07-23T03:26:40;99486.00;;;23.45;59.41
54592;BME280;40488;48.558;18.150;2022-07-23T03:29:09;99478.34;;;23.42;59.43
54592;BME280;40488;48.558;18.150;2022-07-23T03:31:37;99474.81;;;23.43;59.33
54592;BME280;40488;48.558;18.150;2022-07-23T03:34:07;99479.13;;;23.44;59.22
54592;BME280;40488;48.558;18.150;2022-07-23T03:36:36;99486.94;;;23.44;59.06
54592;BME280;40488;48.558;18.150;2022-07-23T03:39:06;99489.34;;;23.47;58.98
54592;BME280;40488;48.558;18.150;2022-07-23T03:41:38;99491.69;;;23.52;58.83
54592;BME280;40488;48.558;18.150;2022-07-23T03:44:07;99485.47;;;23.54;58.63
54592;BME280;40488;48.558;18.150;2022-07-23T03:46:35;99486.31;;;23.55;58.67
54592;BME280;40488;48.558;18.150;2022-07-23T03:49:04;99487.25;;;23.54;58.79
54592;BME280;40488;48.558;18.150;2022-07-23T03:51:34;99488.84;;;23.56;58.85
54592;BME280;40488;48.558;18.150;2022-07-23T03:54:02;99487.81;;;23.59;58.97
54592;BME280;40488;48.558;18.150;2022-07-23T03:56:32;99495.41;;;23.63;59.02
54592;BME280;40488;48.558;18.150;2022-07-23T03:59:01;99502.09;;;23.67;59.37
54592;BME280;40488;48.558;18.150;2022-07-23T04:01:30;99490.72;;;23.68;59.25
54592;BME280;40488;48.558;18.150;2022-07-23T04:03:59;99492.91;;;23.76;59.08
54592;BME280;40488;48.558;18.150;2022-07-23T04:06:28;99502.91;;;23.83;59.19
54592;BME280;40488;48.558;18.150;2022-07-23T04:08:58;99502.56;;;23.89;58.93
54592;BME280;40488;48.558;18.150;2022-07-23T04:11:28;99501.53;;;23.92;58.94
54592;BME280;40488;48.558;18.150;2022-07-23T04:13:58;99516.19;;;23.94;58.80
54592;BME280;40488;48.558;18.150;2022-07-23T04:16:27;99509.25;;;23.93;58.79
54592;BME280;40488;48.558;18.150;2022-07-23T04:18:58;99510.75;;;23.97;58.99
54592;BME280;40488;48.558;18.150;2022-07-23T04:21:32;99511.50;;;23.99;58.88
54592;BME280;40488;48.558;18.150;2022-07-23T04:24:01;99499.97;;;24.04;58.95
54592;BME280;40488;48.558;18.150;2022-07-23T04:26:30;99492.75;;;24.09;58.74
54592;BME280;40488;48.558;18.150;2022-07-23T04:28:59;99499.47;;;24.13;58.72
54592;BME280;40488;48.558;18.150;2022-07-23T04:31:29;99504.31;;;24.19;59.20
54592;BME280;40488;48.558;18.150;2022-07-23T04:34:04;99500.44;;;24.26;58.89
54592;BME280;40488;48.558;18.150;2022-07-23T04:36:32;99505.28;;;24.32;58.67
54592;BME280;40488;48.558;18.150;2022-07-23T04:39:01;99503.06;;;24.40;58.45
54592;BME280;40488;48.558;18.150;2022-07-23T04:41:31;99513.13;;;24.46;57.95
54592;BME280;40488;48.558;18.150;2022-07-23T04:44:01;99509.19;;;24.53;57.11
54592;BME280;40488;48.558;18.150;2022-07-23T04:46:29;99515.56;;;24.63;56.89
54592;BME280;40488;48.558;18.150;2022-07-23T04:48:58;99522.56;;;24.77;56.58
54592;BME280;40488;48.558;18.150;2022-07-23T04:51:27;99514.94;;;24.88;56.31
54592;BME280;40488;48.558;18.150;2022-07-23T04:53:56;99507.44;;;24.96;55.91
54592;BME280;40488;48.558;18.150;2022-07-23T04:56:24;99509.88;;;24.99;55.55
54592;BME280;40488;48.558;18.150;2022-07-23T04:58:52;99499.13;;;25.03;55.50
54592;BME280;40488;48.558;18.150;2022-07-23T05:01:23;99493.72;;;25.06;55.63
54592;BME280;40488;48.558;18.150;2022-07-23T05:03:51;99485.22;;;25.17;55.44
54592;BME280;40488;48.558;18.150;2022-07-23T05:06:20;99482.09;;;25.24;55.19
54592;BME280;40488;48.558;18.150;2022-07-23T05:08:48;99484.31;;;25.30;54.89
54592;BME280;40488;48.558;18.150;2022-07-23T05:11:18;99482.34;;;25.34;54.92
54592;BME280;40488;48.558;18.150;2022-07-23T05:13:53;99487.81;;;25.44;54.87
54592;BME280;40488;48.558;18.150;2022-07-23T05:16:24;99496.78;;;25.54;54.72
54592;BME280;40488;48.558;18.150;2022-07-23T05:18:57;99499.63;;;25.63;54.56
54592;BME280;40488;48.558;18.150;2022-07-23T05:21:27;99495.97;;;25.66;54.24
54592;BME280;40488;48.558;18.150;2022-07-23T05:23:55;99480.47;;;25.63;54.35
54592;BME280;40488;48.558;18.150;2022-07-23T05:26:24;99482.91;;;25.66;54.42
54592;BME280;40488;48.558;18.150;2022-07-23T05:28:54;99496.31;;;25.74;54.27
54592;BME280;40488;48.558;18.150;2022-07-23T05:31:23;99494.03;;;25.82;54.29
54592;BME280;40488;48.558;18.150;2022-07-23T05:33:52;99497.41;;;25.96;54.40
54592;BME280;40488;48.558;18.150;2022-07-23T05:36:21;99504.53;;;26.07;53.87
54592;BME280;40488;48.558;18.150;2022-07-23T05:38:55;99493.59;;;26.15;53.79
54592;BME280;40488;48.558;18.150;2022-07-23T05:41:26;99496.63;;;26.21;53.31
54592;BME280;40488;48.558;18.150;2022-07-23T05:43:56;99493.91;;;26.23;53.63
54592;BME280;40488;48.558;18.150;2022-07-23T05:46:27;99483.25;;;26.26;53.00
54592;BME280;40488;48.558;18.150;2022-07-23T05:49:01;99480.72;;;26.24;53.19
54592;BME280;40488;48.558;18.150;2022-07-23T05:51:42;99475.31;;;26.27;52.91
54592;BME280;40488;48.558;18.150;2022-07-23T05:54:15;99476.56;;;26.34;53.06
54592;BME280;40488;48.558;18.150;2022-07-23T05:56:44;99483.78;;;26.43;52.82
54592;BME280;40488;48.558;18.150;2022-07-23T05:59:12;99474.88;;;26.58;53.06
54592;BME280;40488;48.558;18.150;2022-07-23T06:01:43;99473.38;;;26.80;52.78
54592;BME280;40488;48.558;18.150;2022-07-23T06:04:15;99474.59;;;26.99;52.28
54592;BME280;40488;48.558;18.150;2022-07-23T06:06:54;99473.91;;;27.21;51.70
54592;BME280;40488;48.558;18.150;2022-07-23T06:09:23;99476.97;;;27.39;51.40
54592;BME280;40488;48.558;18.150;2022-07-23T06:11:52;99475.25;;;27.50;50.98
54592;BME280;40488;48.558;18.150;2022-07-23T06:14:20;99479.09;;;27.57;50.30
54592;BME280;40488;48.558;18.150;2022-07-23T06:16:55;99470.31;;;27.69;50.52
54592;BME280;40488;48.558;18.150;2022-07-23T06:19:24;99473.94;;;27.79;50.03
54592;BME280;40488;48.558;18.150;2022-07-23T06:21:52;99468.75;;;27.90;49.83
54592;BME280;40488;48.558;18.150;2022-07-23T06:24:21;99476.44;;;28.05;49.80
54592;BME280;40488;48.558;18.150;2022-07-23T06:26:50;99468.78;;;28.13;49.35
54592;BME280;40488;48.558;18.150;2022-07-23T06:29:18;99476.22;;;28.30;49.20
54592;BME280;40488;48.558;18.150;2022-07-23T06:31:47;99478.97;;;28.39;48.77
54592;BME280;40488;48.558;18.150;2022-07-23T06:34:17;99480.53;;;28.42;48.23
54592;BME280;40488;48.558;18.150;2022-07-23T06:36:45;99474.34;;;28.54;48.12
54592;BME280;40488;48.558;18.150;2022-07-23T06:39:14;99485.00;;;28.64;47.98
54592;BME280;40488;48.558;18.150;2022-07-23T06:41:47;99474.59;;;28.73;47.53
54592;BME280;40488;48.558;18.150;2022-07-23T06:44:18;99473.63;;;28.85;47.59
54592;BME280;40488;48.558;18.150;2022-07-23T06:46:48;99467.16;;;29.00;47.33
54592;BME280;40488;48.558;18.150;2022-07-23T06:49:18;99477.53;;;29.13;47.08
54592;BME280;40488;48.558;18.150;2022-07-23T06:51:48;99471.66;;;29.32;46.61
54592;BME280;40488;48.558;18.150;2022-07-23T06:54:16;99472.69;;;29.51;46.63
54592;BME280;40488;48.558;18.150;2022-07-23T06:56:45;99473.00;;;29.58;46.07
54592;BME280;40488;48.558;18.150;2022-07-23T06:59:13;99474.03;;;29.66;45.93
54592;BME280;40488;48.558;18.150;2022-07-23T07:01:42;99472.09;;;29.79;45.39
54592;BME280;40488;48.558;18.150;2022-07-23T07:04:10;99469.06;;;29.84;45.34
54592;BME280;40488;48.558;18.150;2022-07-23T07:06:40;99467.00;;;29.88;44.87
54592;BME280;40488;48.558;18.150;2022-07-23T07:09:09;99470.53;;;29.98;44.78
54592;BME280;40488;48.558;18.150;2022-07-23T07:11:37;99477.56;;;30.08;44.72
54592;BME280;40488;48.558;18.150;2022-07-23T07:14:06;99483.50;;;30.31;44.43
54592;BME280;40488;48.558;18.150;2022-07-23T07:16:34;99480.50;;;30.35;44.12
54592;BME280;40488;48.558;18.150;2022-07-23T07:19:03;99476.66;;;30.39;43.91
54592;BME280;40488;48.558;18.150;2022-07-23T07:21:32;99465.75;;;30.54;43.57
54592;BME280;40488;48.558;18.150;2022-07-23T07:24:02;99455.94;;;30.65;43.44
54592;BME280;40488;48.558;18.150;2022-07-23T07:26:31;99462.66;;;30.79;43.30
54592;BME280;40488;48.558;18.150;2022-07-23T07:28:59;99464.16;;;31.02;43.50
54592;BME280;40488;48.558;18.150;2022-07-23T07:31:29;99464.69;;;31.05;43.87
54592;BME280;40488;48.558;18.150;2022-07-23T07:33:57;99454.16;;;31.15;43.61
54592;BME280;40488;48.558;18.150;2022-07-23T07:36:26;99454.75;;;31.28;43.07
54592;BME280;40488;48.558;18.150;2022-07-23T07:38:54;99453.22;;;31.35;42.39
54592;BME280;40488;48.558;18.150;2022-07-23T07:41:24;99456.13;;;31.32;42.10
54592;BME280;40488;48.558;18.150;2022-07-23T07:43:53;99452.22;;;31.27;41.69
54592;BME280;40488;48.558;18.150;2022-07-23T07:46:21;99453.38;;;31.24;41.40
54592;BME280;40488;48.558;18.150;2022-07-23T07:48:51;99456.69;;;31.26;40.96
54592;BME280;40488;48.558;18.150;2022-07-23T07:51:24;99453.75;;;31.29;41.54
54592;BME280;40488;48.558;18.150;2022-07-23T07:53:53;99460.56;;;31.41;41.36
54592;BME280;40488;48.558;18.150;2022-07-23T07:56:22;99456.31;;;31.50;41.44
54592;BME280;40488;48.558;18.150;2022-07-23T07:58:52;99457.28;;;31.58;41.04
54592;BME280;40488;48.558;18.150;2022-07-23T08:01:20;99455.63;;;31.67;40.93
54592;BME280;40488;48.558;18.150;2022-07-23T08:03:48;99455.31;;;31.79;40.46
54592;BME280;40488;48.558;18.150;2022-07-23T08:06:17;99455.59;;;31.96;40.25
54592;BME280;40488;48.558;18.150;2022-07-23T08:08:47;99448.78;;;32.03;39.85
54592;BME280;40488;48.558;18.150;2022-07-23T08:11:15;99448.31;;;32.17;39.56
54592;BME280;40488;48.558;18.150;2022-07-23T08:13:44;99442.97;;;32.36;38.91
54592;BME280;40488;48.558;18.150;2022-07-23T08:16:14;99445.44;;;32.47;38.75
54592;BME280;40488;48.558;18.150;2022-07-23T08:18:43;99452.81;;;32.53;38.42
54592;BME280;40488;48.558;18.150;2022-07-23T08:21:11;99453.50;;;32.55;38.01
54592;BME280;40488;48.558;18.150;2022-07-23T08:23:40;99455.88;;;32.49;37.37
54592;BME280;40488;48.558;18.150;2022-07-23T08:26:08;99460.47;;;32.47;37.35
54592;BME280;40488;48.558;18.150;2022-07-23T08:28:37;99462.41;;;32.54;37.05
54592;BME280;40488;48.558;18.150;2022-07-23T08:31:05;99459.19;;;32.60;37.29
54592;BME280;40488;48.558;18.150;2022-07-23T08:33:35;99453.75;;;32.62;36.54
54592;BME280;40488;48.558;18.150;2022-07-23T08:36:04;99448.50;;;32.52;36.61
54592;BME280;40488;48.558;18.150;2022-07-23T08:38:32;99446.84;;;32.51;37.12
54592;BME280;40488;48.558;18.150;2022-07-23T08:41:02;99446.44;;;32.46;37.18
54592;BME280;40488;48.558;18.150;2022-07-23T08:43:32;99442.97;;;32.36;37.48
54592;BME280;40488;48.558;18.150;2022-07-23T08:46:02;99446.59;;;32.35;37.45
54592;BME280;40488;48.558;18.150;2022-07-23T08:48:32;99448.50;;;32.42;36.93
54592;BME280;40488;48.558;18.150;2022-07-23T08:51:02;99441.97;;;32.56;36.65
54592;BME280;40488;48.558;18.150;2022-07-23T08:53:32;99445.75;;;32.71;36.56
54592;BME280;40488;48.558;18.150;2022-07-23T08:56:03;99447.78;;;32.87;36.34
54592;BME280;40488;48.558;18.150;2022-07-23T08:58:34;99444.09;;;32.97;36.15
54592;BME280;40488;48.558;18.150;2022-07-23T09:01:02;99440.94;;;33.12;35.48
54592;BME280;40488;48.558;18.150;2022-07-23T09:03:32;99441.56;;;33.05;35.75
54592;BME280;40488;48.558;18.150;2022-07-23T09:06:03;99446.25;;;33.12;35.36
54592;BME280;40488;48.558;18.150;2022-07-23T09:08:36;99436.50;;;33.12;34.59
54592;BME280;40488;48.558;18.150;2022-07-23T09:11:06;99440.88;;;33.21;34.42
54592;BME280;40488;48.558;18.150;2022-07-23T09:13:36;99436.22;;;33.33;34.07
54592;BME280;40488;48.558;18.150;2022-07-23T09:16:07;99439.00;;;33.49;34.00
54592;BME280;40488;48.558;18.150;2022-07-23T09:18:38;99438.56;;;33.71;33.57
54592;BME280;40488;48.558;18.150;2022-07-23T09:21:10;99434.25;;;33.96;33.50
54592;BME280;40488;48.558;18.150;2022-07-23T09:23:40;99429.25;;;34.10;33.40
54592;BME280;40488;48.558;18.150;2022-07-23T09:28:52;99429.84;;;34.56;31.96
54592;BME280;40488;48.558;18.150;2022-07-23T09:31:21;99430.72;;;34.64;31.97
54592;BME280;40488;48.558;18.150;2022-07-23T09:33:50;99430.59;;;34.74;31.81
54592;BME280;40488;48.558;18.150;2022-07-23T09:38:59;99424.44;;;34.73;31.39
54592;BME280;40488;48.558;18.150;2022-07-23T09:41:33;99426.47;;;34.79;30.31
54592;BME280;40488;48.558;18.150;2022-07-23T09:44:09;99428.94;;;34.81;30.96
54592;BME280;40488;48.558;18.150;2022-07-23T09:46:38;99429.66;;;34.91;31.81
54592;BME280;40488;48.558;18.150;2022-07-23T09:49:11;99425.00;;;35.01;31.99
54592;BME280;40488;48.558;18.150;2022-07-23T09:51:44;99417.13;;;35.17;31.70
54592;BME280;40488;48.558;18.150;2022-07-23T09:54:22;99419.78;;;35.25;31.26
54592;BME280;40488;48.558;18.150;2022-07-23T09:56:52;99417.47;;;35.22;31.20
54592;BME280;40488;48.558;18.150;2022-07-23T09:59:23;99414.16;;;35.20;31.33
54592;BME280;40488;48.558;18.150;2022-07-23T10:01:52;99416.78;;;35.28;31.01
54592;BME280;40488;48.558;18.150;2022-07-23T10:04:21;99409.66;;;35.21;31.29
54592;BME280;40488;48.558;18.150;2022-07-23T10:07:02;99401.53;;;35.22;31.26
54592;BME280;40488;48.558;18.150;2022-07-23T10:09:43;99393.75;;;35.37;30.94
54592;BME280;40488;48.558;18.150;2022-07-23T10:12:24;99399.38;;;35.50;30.53
54592;BME280;40488;48.558;18.150;2022-07-23T10:15:07;99390.75;;;35.64;31.14
54592;BME280;40488;48.558;18.150;2022-07-23T10:17:36;99384.63;;;35.80;30.87
54592;BME280;40488;48.558;18.150;2022-07-23T10:20:05;99392.25;;;35.75;29.97
54592;BME280;40488;48.558;18.150;2022-07-23T10:22:34;99390.28;;;35.60;29.77
54592;BME280;40488;48.558;18.150;2022-07-23T10:25:10;99386.94;;;35.50;30.40
54592;BME280;40488;48.558;18.150;2022-07-23T10:27:48;99383.31;;;35.67;30.31
54592;BME280;40488;48.558;18.150;2022-07-23T10:30:22;99382.63;;;35.74;29.77
54592;BME280;40488;48.558;18.150;2022-07-23T10:33:05;99387.13;;;35.65;29.53
54592;BME280;40488;48.558;18.150;2022-07-23T10:35:39;99380.66;;;35.67;29.71
54592;BME280;40488;48.558;18.150;2022-07-23T10:38:13;99378.66;;;35.70;29.69
54592;BME280;40488;48.558;18.150;2022-07-23T10:43:25;99371.34;;;35.72;29.31
54592;BME280;40488;48.558;18.150;2022-07-23T10:45:54;99369.50;;;35.64;29.46
54592;BME280;40488;48.558;18.150;2022-07-23T10:48:23;99368.69;;;35.63;29.95
54592;BME280;40488;48.558;18.150;2022-07-23T10:56:17;99360.53;;;35.81;29.43
54592;BME280;40488;48.558;18.150;2022-07-23T10:58:47;99351.69;;;35.89;29.75
54592;BME280;40488;48.558;18.150;2022-07-23T11:03:56;99352.66;;;36.12;28.89
54592;BME280;40488;48.558;18.150;2022-07-23T11:06:26;99342.50;;;36.15;29.27
54592;BME280;40488;48.558;18.150;2022-07-23T11:17:26;99328.38;;;36.23;29.63
54592;BME280;40488;48.558;18.150;2022-07-23T11:22:34;99335.31;;;36.24;29.13
54592;BME280;40488;48.558;18.150;2022-07-23T11:25:03;99326.34;;;36.25;29.19
54592;BME280;40488;48.558;18.150;2022-07-23T11:27:38;99326.38;;;36.17;29.26
54592;BME280;40488;48.558;18.150;2022-07-23T11:30:06;99316.41;;;36.19;29.47
54592;BME280;40488;48.558;18.150;2022-07-23T11:32:37;99328.81;;;36.26;29.51
54592;BME280;40488;48.558;18.150;2022-07-23T11:37:45;99318.03;;;36.28;29.43
54592;BME280;40488;48.558;18.150;2022-07-23T11:40:15;99315.63;;;36.41;29.57
54592;BME280;40488;48.558;18.150;2022-07-23T11:42:54;99316.28;;;36.43;28.99
54592;BME280;40488;48.558;18.150;2022-07-23T11:45:23;99305.47;;;36.45;29.18
54592;BME280;40488;48.558;18.150;2022-07-23T11:47:55;99313.19;;;36.62;29.25
54592;BME280;40488;48.558;18.150;2022-07-23T11:50:23;99312.50;;;36.68;29.15
54592;BME280;40488;48.558;18.150;2022-07-23T11:52:54;99305.19;;;36.70;28.57
54592;BME280;40488;48.558;18.150;2022-07-23T11:55:23;99297.63;;;36.59;28.74
54592;BME280;40488;48.558;18.150;2022-07-23T11:57:51;99290.63;;;36.58;29.05
54592;BME280;40488;48.558;18.150;2022-07-23T12:00:21;99287.53;;;36.69;29.61
54592;BME280;40488;48.558;18.150;2022-07-23T12:02:50;99280.81;;;36.81;29.31
54592;BME280;40488;48.558;18.150;2022-07-23T12:05:22;99283.09;;;36.92;29.17
54592;BME280;40488;48.558;18.150;2022-07-23T12:07:52;99288.34;;;37.01;29.75
54592;BME280;40488;48.558;18.150;2022-07-23T12:10:21;99282.59;;;37.12;29.52
54592;BME280;40488;48.558;18.150;2022-07-23T12:12:51;99287.03;;;37.34;29.50
54592;BME280;40488;48.558;18.150;2022-07-23T12:15:20;99273.53;;;37.21;28.99
54592;BME280;40488;48.558;18.150;2022-07-23T12:17:49;99285.31;;;37.04;29.13
54592;BME280;40488;48.558;18.150;2022-07-23T12:20:20;99276.75;;;36.93;29.02
54592;BME280;40488;48.558;18.150;2022-07-23T12:22:52;99271.78;;;36.90;29.24
54592;BME280;40488;48.558;18.150;2022-07-23T12:25:21;99265.09;;;36.94;29.59
54592;BME280;40488;48.558;18.150;2022-07-23T12:27:58;99262.34;;;37.03;29.17
54592;BME280;40488;48.558;18.150;2022-07-23T12:30:27;99251.53;;;37.04;29.50
54592;BME280;40488;48.558;18.150;2022-07-23T12:33:01;99253.94;;;37.14;29.52
54592;BME280;40488;48.558;18.150;2022-07-23T12:35:30;99248.28;;;37.17;29.11
54592;BME280;40488;48.558;18.150;2022-07-23T12:38:01;99247.44;;;37.16;29.32
54592;BME280;40488;48.558;18.150;2022-07-23T12:40:31;99239.63;;;37.29;29.19
54592;BME280;40488;48.558;18.150;2022-07-23T12:43:02;99248.41;;;37.38;28.87
54592;BME280;40488;48.558;18.150;2022-07-23T12:48:15;99241.22;;;37.24;28.90
54592;BME280;40488;48.558;18.150;2022-07-23T12:50:52;99238.53;;;37.09;29.07
54592;BME280;40488;48.558;18.150;2022-07-23T12:53:23;99229.06;;;37.07;29.55
54592;BME280;40488;48.558;18.150;2022-07-23T12:55:57;99237.41;;;37.04;29.51
54592;BME280;40488;48.558;18.150;2022-07-23T12:58:46;99236.94;;;36.77;29.84
54592;BME280;40488;48.558;18.150;2022-07-23T13:01:21;99229.88;;;36.47;29.77
54592;BME280;40488;48.558;18.150;2022-07-23T13:03:56;99232.22;;;36.34;30.09
54592;BME280;40488;48.558;18.150;2022-07-23T13:06:25;99225.31;;;36.25;30.24
54592;BME280;40488;48.558;18.150;2022-07-23T13:08:57;99224.28;;;36.26;30.23
54592;BME280;40488;48.558;18.150;2022-07-23T13:11:27;99225.91;;;36.35;30.18
54592;BME280;40488;48.558;18.150;2022-07-23T13:13:56;99228.84;;;36.48;30.25
54592;BME280;40488;48.558;18.150;2022-07-23T13:16:28;99215.31;;;36.58;30.32
54592;BME280;40488;48.558;18.150;2022-07-23T13:18:57;99226.47;;;36.53;29.76
54592;BME280;40488;48.558;18.150;2022-07-23T13:21:26;99220.16;;;36.54;29.81
54592;BME280;40488;48.558;18.150;2022-07-23T13:23:56;99210.31;;;36.55;29.60
54592;BME280;40488;48.558;18.150;2022-07-23T13:26:25;99210.47;;;36.61;29.58
54592;BME280;40488;48.558;18.150;2022-07-23T13:28:53;99203.47;;;36.60;29.47
54592;BME280;40488;48.558;18.150;2022-07-23T13:31:22;99209.38;;;36.70;30.11
54592;BME280;40488;48.558;18.150;2022-07-23T13:33:51;99202.16;;;36.79;30.09
54592;BME280;40488;48.558;18.150;2022-07-23T13:36:20;99208.31;;;36.79;30.14
54592;BME280;40488;48.558;18.150;2022-07-23T13:38:48;99204.25;;;36.83;30.02
54592;BME280;40488;48.558;18.150;2022-07-23T13:41:19;99196.66;;;36.80;29.66